Time;durP1;ratioP1;P1;durP2;ratioP2;P2;SDS_P1;SDS_P2;PMS_P1;PMS_P2;Temp;Humidity;BMP_temperature;BMP_pressure;BME280_temperature;BME280_humidity;BME280_pressure;Samples;Min_cycle;Max_cycle;Signal;HPM_P1;HPM_P2
2021/12/30 00:02:03;;;;;;;9.23;6.40;;;6.00;99.90;;;;;;4973833;28;20202;-71
2021/12/30 00:04:29;;;;;;;8.97;4.30;;;6.00;99.90;;;;;;4974039;28;20189;-71
2021/12/30 00:06:54;;;;;;;6.93;4.63;;;6.00;99.90;;;;;;4973889;28;20174;-71
2021/12/30 00:09:20;;;;;;;8.30;4.40;;;6.00;99.90;;;;;;4974274;28;20170;-71
2021/12/30 00:11:47;;;;;;;5.80;4.90;;;6.00;99.90;;;;;;4973911;28;20553;-70
2021/12/30 00:14:13;;;;;;;6.77;5.00;;;6.00;99.90;;;;;;4974269;28;20204;-75
2021/12/30 00:16:39;;;;;;;9.93;4.03;;;6.00;99.90;;;;;;4973796;28;20492;-70
2021/12/30 00:19:05;;;;;;;9.93;7.00;;;6.00;99.90;;;;;;4973791;28;20194;-70
2021/12/30 00:21:30;;;;;;;8.80;5.90;;;6.00;99.90;;;;;;4973742;28;20563;-70
2021/12/30 00:23:56;;;;;;;13.40;5.87;;;6.00;99.90;;;;;;4973766;28;20170;-72
2021/12/30 00:26:21;;;;;;;9.07;4.13;;;6.00;99.90;;;;;;4973781;28;20591;-71
2021/12/30 00:28:47;;;;;;;10.17;4.43;;;6.10;99.90;;;;;;4973809;28;20200;-71
2021/12/30 00:31:12;;;;;;;6.37;3.87;;;6.00;99.90;;;;;;4973613;28;20693;-72
2021/12/30 00:33:38;;;;;;;7.83;5.43;;;6.00;99.90;;;;;;4973489;28;20197;-74
2021/12/30 00:36:06;;;;;;;7.93;4.80;;;6.00;99.90;;;;;;4973493;28;20202;-73
2021/12/30 00:38:33;;;;;;;7.33;5.30;;;6.00;99.90;;;;;;4973523;28;20867;-73
2021/12/30 00:40:59;;;;;;;10.13;5.80;;;6.00;99.90;;;;;;4991455;28;20476;-72
2021/12/30 00:43:25;;;;;;;9.90;5.23;;;6.00;99.90;;;;;;4992751;28;20420;-72
2021/12/30 00:45:51;;;;;;;13.53;5.83;;;6.00;99.90;;;;;;4987535;28;20165;-72
2021/12/30 00:48:16;;;;;;;11.57;5.10;;;6.00;99.90;;;;;;4973255;28;20488;-73
2021/12/30 00:53:09;;;;;;;6.87;4.37;;;6.00;99.90;;;;;;5001783;23;20225;-72
2021/12/30 00:55:35;;;;;;;6.53;3.93;;;6.00;99.90;;;;;;4974375;28;20401;-71
2021/12/30 00:58:02;;;;;;;10.80;4.80;;;6.00;99.90;;;;;;4974068;28;20911;-72
2021/12/30 01:00:28;;;;;;;13.10;9.00;;;6.00;99.90;;;;;;4973956;28;20170;-72
2021/12/30 01:02:53;;;;;;;8.77;5.57;;;6.00;99.90;;;;;;4973694;28;20479;-71
2021/12/30 01:05:19;;;;;;;10.27;4.80;;;6.00;99.90;;;;;;4973476;28;20577;-71
2021/12/30 01:07:45;;;;;;;7.50;4.50;;;6.00;99.90;;;;;;4973901;28;20170;-71
2021/12/30 01:10:14;;;;;;;5.20;4.07;;;6.00;99.90;;;;;;4974035;28;20778;-71
2021/12/30 01:12:41;;;;;;;9.27;6.07;;;6.00;99.90;;;;;;4973575;28;20598;-70
2021/12/30 01:15:10;;;;;;;7.70;5.30;;;6.10;99.90;;;;;;4974023;28;20405;-72
2021/12/30 01:17:45;;;;;;;7.70;4.40;;;6.00;99.90;;;;;;4974155;28;20424;-71
2021/12/30 01:20:13;;;;;;;7.10;4.80;;;6.00;99.90;;;;;;4974130;28;20474;-71
2021/12/30 01:22:38;;;;;;;6.57;4.60;;;6.00;99.90;;;;;;4973851;28;20465;-71
2021/12/30 01:25:07;;;;;;;7.40;4.67;;;6.00;99.90;;;;;;4973840;28;20415;-71
2021/12/30 01:27:36;;;;;;;8.33;4.60;;;6.10;99.90;;;;;;4973470;28;20162;-71
2021/12/30 01:30:03;;;;;;;5.53;3.90;;;6.10;99.90;;;;;;4973549;28;20425;-72
2021/12/30 01:32:28;;;;;;;9.40;4.63;;;6.10;99.90;;;;;;4973513;28;20432;-72
2021/12/30 01:34:54;;;;;;;7.93;5.60;;;6.10;99.90;;;;;;4973339;28;20405;-71
2021/12/30 01:37:22;;;;;;;8.40;4.90;;;6.10;99.90;;;;;;4973330;28;20178;-72
2021/12/30 01:39:47;;;;;;;7.37;4.50;;;6.10;99.90;;;;;;4973538;28;20224;-72
2021/12/30 01:42:13;;;;;;;5.70;4.07;;;6.10;99.90;;;;;;4973761;28;21023;-72
2021/12/30 01:44:40;;;;;;;7.30;3.90;;;6.10;99.90;;;;;;4973728;28;20165;-71
2021/12/30 01:47:06;;;;;;;4.60;3.33;;;6.10;99.90;;;;;;4973856;28;20161;-71
2021/12/30 01:49:32;;;;;;;9.27;5.87;;;6.10;99.90;;;;;;4974797;28;20909;-71
2021/12/30 01:51:58;;;;;;;5.93;4.50;;;6.20;99.90;;;;;;4977945;28;20228;-73
2021/12/30 01:54:26;;;;;;;5.60;4.27;;;6.10;99.90;;;;;;4974072;28;20892;-72
2021/12/30 01:56:53;;;;;;;4.50;3.57;;;6.00;99.90;;;;;;4979644;28;20412;-71
2021/12/30 01:59:21;;;;;;;8.50;4.73;;;6.00;99.90;;;;;;4975381;28;20420;-71
2021/12/30 02:01:46;;;;;;;9.67;5.13;;;6.00;99.90;;;;;;4977379;28;20953;-71
2021/12/30 02:04:13;;;;;;;15.20;5.53;;;6.10;99.90;;;;;;4977989;28;20425;-72
2021/12/30 02:06:38;;;;;;;9.37;4.83;;;6.10;99.90;;;;;;4974876;28;20628;-72
2021/12/30 02:09:04;;;;;;;5.43;4.30;;;6.10;99.90;;;;;;4973200;28;20433;-71
2021/12/30 02:11:29;;;;;;;7.33;3.70;;;6.10;99.90;;;;;;4972963;28;20197;-71
2021/12/30 02:13:56;;;;;;;5.40;3.43;;;6.10;99.90;;;;;;4972913;28;20178;-71
2021/12/30 02:16:22;;;;;;;8.10;4.63;;;6.10;99.90;;;;;;4972963;28;20272;-71
2021/12/30 02:18:48;;;;;;;7.90;4.00;;;6.10;99.90;;;;;;4976302;28;20919;-71
2021/12/30 02:21:13;;;;;;;8.93;4.70;;;6.10;99.90;;;;;;4976984;28;20206;-71
2021/12/30 02:23:39;;;;;;;6.60;4.20;;;6.10;99.90;;;;;;4977227;28;20826;-71
2021/12/30 02:26:06;;;;;;;6.10;4.00;;;6.10;99.90;;;;;;4975364;28;20168;-71
2021/12/30 02:28:34;;;;;;;5.47;3.80;;;6.10;99.90;;;;;;4977094;28;20186;-71
2021/12/30 02:31:03;;;;;;;17.63;4.10;;;6.10;99.90;;;;;;4976629;28;20413;-71
2021/12/30 02:33:29;;;;;;;4.80;4.27;;;6.10;99.90;;;;;;4976862;28;20401;-71
2021/12/30 02:35:55;;;;;;;8.80;4.27;;;6.20;99.90;;;;;;4976556;28;20941;-71
2021/12/30 02:38:21;;;;;;;9.30;6.30;;;6.20;99.90;;;;;;4976811;28;20176;-71
2021/12/30 02:40:50;;;;;;;4.97;4.47;;;6.20;99.90;;;;;;4976801;28;20444;-71
2021/12/30 02:43:19;;;;;;;8.57;6.60;;;6.20;99.90;;;;;;4976658;28;20412;-71
2021/12/30 02:45:45;;;;;;;7.23;4.03;;;6.20;99.90;;;;;;4976681;28;20492;-71
2021/12/30 02:48:19;;;;;;;11.50;5.70;;;6.20;99.90;;;;;;4976840;28;20749;-71
2021/12/30 02:50:46;;;;;;;6.93;4.80;;;6.20;99.90;;;;;;4976268;28;20900;-71
2021/12/30 02:53:12;;;;;;;8.60;4.43;;;6.30;99.90;;;;;;4976422;28;20429;-72
2021/12/30 02:55:38;;;;;;;5.47;3.67;;;6.30;99.90;;;;;;4976381;28;20424;-71
2021/12/30 02:58:04;;;;;;;5.03;4.40;;;6.30;99.90;;;;;;4976457;28;20868;-71
2021/12/30 03:00:30;;;;;;;7.00;4.20;;;6.30;99.90;;;;;;4976373;28;20428;-71
2021/12/30 03:02:56;;;;;;;7.93;5.50;;;6.30;99.90;;;;;;4976055;28;20190;-71
2021/12/30 03:05:24;;;;;;;10.93;5.20;;;6.30;99.90;;;;;;4976379;28;20408;-71
2021/12/30 03:07:50;;;;;;;5.47;4.97;;;6.40;99.90;;;;;;4976226;28;20416;-71
2021/12/30 03:10:18;;;;;;;7.80;5.53;;;6.40;99.90;;;;;;4976163;28;20559;-71
2021/12/30 03:12:44;;;;;;;6.67;5.73;;;6.40;99.90;;;;;;4975896;28;20433;-71
2021/12/30 03:15:14;;;;;;;8.60;5.33;;;6.40;99.90;;;;;;4976048;28;20419;-72
2021/12/30 03:17:40;;;;;;;8.07;4.53;;;6.40;99.90;;;;;;4975898;28;20408;-72
2021/12/30 03:20:09;;;;;;;8.70;4.80;;;6.40;99.90;;;;;;4975837;28;20418;-71
2021/12/30 03:22:37;;;;;;;11.60;4.27;;;6.50;99.90;;;;;;4975706;28;20711;-71
2021/12/30 03:25:03;;;;;;;7.10;3.70;;;6.50;99.90;;;;;;4975883;28;20414;-71
2021/12/30 03:27:29;;;;;;;9.23;4.97;;;6.50;99.90;;;;;;4975976;28;20408;-71
2021/12/30 03:29:54;;;;;;;4.50;3.50;;;6.50;99.90;;;;;;4975359;28;20778;-71
2021/12/30 03:32:20;;;;;;;8.40;4.97;;;6.60;99.90;;;;;;4975469;28;20189;-71
2021/12/30 03:34:45;;;;;;;4.43;3.97;;;6.60;99.90;;;;;;4975682;28;20186;-71
2021/12/30 03:37:10;;;;;;;6.70;5.00;;;6.60;99.90;;;;;;4975842;28;20169;-72
2021/12/30 03:39:37;;;;;;;4.70;3.90;;;6.60;99.90;;;;;;4975632;28;20667;-71
2021/12/30 03:42:02;;;;;;;4.67;3.77;;;6.70;99.90;;;;;;4975345;28;20284;-71
2021/12/30 03:44:28;;;;;;;6.73;3.93;;;6.70;99.90;;;;;;4975428;28;20488;-71
2021/12/30 03:46:54;;;;;;;6.70;5.37;;;6.70;99.90;;;;;;4975322;28;20220;-72
2021/12/30 03:49:20;;;;;;;6.77;4.90;;;6.70;99.90;;;;;;4975567;28;20633;-72
2021/12/30 03:51:45;;;;;;;4.70;2.80;;;6.80;99.90;;;;;;4975419;28;20464;-72
2021/12/30 03:54:11;;;;;;;5.00;3.67;;;6.80;99.90;;;;;;4975335;28;20170;-72
2021/12/30 03:56:36;;;;;;;7.03;4.37;;;6.80;99.90;;;;;;4975350;28;20174;-72
2021/12/30 03:59:03;;;;;;;5.60;4.67;;;6.90;99.90;;;;;;4975455;28;20176;-72
2021/12/30 04:01:29;;;;;;;6.47;3.60;;;6.90;99.90;;;;;;4975409;28;20627;-72
2021/12/30 04:03:55;;;;;;;4.40;2.70;;;6.90;99.90;;;;;;4975174;28;20409;-71
2021/12/30 04:06:21;;;;;;;5.23;4.33;;;6.90;99.90;;;;;;4975174;28;20173;-71
2021/12/30 04:08:48;;;;;;;3.70;3.10;;;7.00;99.90;;;;;;4977007;28;20409;-71
2021/12/30 04:11:14;;;;;;;4.20;3.77;;;7.00;99.90;;;;;;4979447;28;20433;-71
2021/12/30 04:13:39;;;;;;;5.17;4.10;;;7.00;99.90;;;;;;4979015;28;20934;-71
2021/12/30 04:16:05;;;;;;;3.43;2.93;;;7.10;99.90;;;;;;4974693;28;20181;-71
2021/12/30 04:18:31;;;;;;;4.73;3.60;;;7.10;99.90;;;;;;4974814;28;20170;-71
2021/12/30 04:20:57;;;;;;;3.77;3.47;;;7.20;99.90;;;;;;4974695;28;20196;-71
2021/12/30 04:23:22;;;;;;;4.00;3.57;;;7.20;99.90;;;;;;4974649;28;20405;-73
2021/12/30 04:25:48;;;;;;;5.60;3.10;;;7.20;99.90;;;;;;4974572;28;20617;-71
2021/12/30 04:28:13;;;;;;;3.50;2.50;;;7.20;99.90;;;;;;4974842;28;20309;-71
2021/12/30 04:30:39;;;;;;;5.27;3.27;;;7.30;99.90;;;;;;4974641;28;20176;-71
2021/12/30 04:33:04;;;;;;;3.50;3.00;;;7.30;99.90;;;;;;4974362;28;20196;-71
2021/12/30 04:35:30;;;;;;;5.87;3.60;;;7.40;99.90;;;;;;4974452;28;20382;-71
2021/12/30 04:37:55;;;;;;;6.33;3.53;;;7.40;99.90;;;;;;4974528;28;20170;-71
2021/12/30 04:40:21;;;;;;;5.70;3.73;;;7.40;99.90;;;;;;4973541;28;20225;-72
2021/12/30 04:42:46;;;;;;;9.80;4.60;;;7.40;99.90;;;;;;4974093;28;20209;-71
2021/12/30 04:45:12;;;;;;;7.50;3.63;;;7.50;99.90;;;;;;4974351;28;20165;-71
2021/12/30 04:47:39;;;;;;;7.00;4.53;;;7.50;99.90;;;;;;4974402;28;20165;-72
2021/12/30 04:50:08;;;;;;;10.43;4.30;;;7.50;99.90;;;;;;4974154;28;20162;-71
2021/12/30 04:52:33;;;;;;;13.43;6.43;;;7.50;99.90;;;;;;4974013;28;20536;-71
2021/12/30 04:54:58;;;;;;;8.77;5.70;;;7.60;99.90;;;;;;4974075;28;20954;-71
2021/12/30 04:57:24;;;;;;;7.10;4.73;;;7.60;99.90;;;;;;4974246;28;20181;-70
2021/12/30 04:59:49;;;;;;;8.00;4.70;;;7.60;99.90;;;;;;4974272;28;20256;-71
2021/12/30 05:02:15;;;;;;;7.90;4.60;;;7.60;99.90;;;;;;4974371;28;20257;-71
2021/12/30 05:04:41;;;;;;;5.27;3.23;;;7.60;99.90;;;;;;4974258;28;20213;-71
2021/12/30 05:07:06;;;;;;;9.43;4.63;;;7.60;99.90;;;;;;4973864;28;20248;-71
2021/12/30 05:09:32;;;;;;;12.00;6.13;;;7.70;99.90;;;;;;4973810;28;20209;-71
2021/12/30 05:11:57;;;;;;;9.43;6.53;;;7.70;99.90;;;;;;4973818;28;20766;-71
2021/12/30 05:14:23;;;;;;;8.57;4.80;;;7.70;99.90;;;;;;4973857;28;20185;-71
2021/12/30 05:16:49;;;;;;;11.70;6.70;;;7.70;99.90;;;;;;4973738;28;20511;-71
2021/12/30 05:19:15;;;;;;;8.07;6.30;;;7.70;99.90;;;;;;4973542;28;20232;-71
2021/12/30 05:21:41;;;;;;;10.20;6.00;;;7.80;99.90;;;;;;4973315;28;20465;-71
2021/12/30 05:24:07;;;;;;;9.77;6.00;;;7.80;99.90;;;;;;4973712;28;20643;-71
2021/12/30 05:26:32;;;;;;;11.73;5.37;;;7.80;99.90;;;;;;4973494;28;20170;-71
2021/12/30 05:28:59;;;;;;;12.93;5.73;;;7.80;99.90;;;;;;4973413;28;20414;-71
2021/12/30 05:31:25;;;;;;;15.60;6.00;;;7.90;99.90;;;;;;4973534;28;20204;-71
2021/12/30 05:33:51;;;;;;;10.20;7.20;;;7.90;99.90;;;;;;4973494;28;20410;-71
2021/12/30 05:36:17;;;;;;;7.27;5.43;;;7.90;99.90;;;;;;4971934;28;20868;-71
2021/12/30 05:38:43;;;;;;;7.13;5.40;;;7.90;99.90;;;;;;4973369;28;20424;-71
2021/12/30 05:41:08;;;;;;;16.87;6.00;;;8.00;99.90;;;;;;4973202;28;20213;-71
2021/12/30 05:43:34;;;;;;;9.40;6.20;;;8.00;99.90;;;;;;4973300;28;20587;-71
2021/12/30 05:45:59;;;;;;;10.67;5.90;;;8.00;99.90;;;;;;4973176;28;20524;-71
2021/12/30 05:48:26;;;;;;;8.27;5.67;;;8.00;99.90;;;;;;4973279;28;20253;-71
2021/12/30 05:50:51;;;;;;;17.23;5.93;;;8.00;99.90;;;;;;4973029;28;20639;-71
2021/12/30 05:53:17;;;;;;;10.37;5.90;;;8.00;99.90;;;;;;4973006;28;20487;-71
2021/12/30 05:55:42;;;;;;;14.20;5.77;;;8.10;99.90;;;;;;4973046;28;20174;-71
2021/12/30 05:58:08;;;;;;;10.23;5.80;;;8.00;99.90;;;;;;4976811;28;20256;-71
2021/12/30 06:00:33;;;;;;;9.87;5.97;;;8.10;99.90;;;;;;4974949;28;20178;-71
2021/12/30 06:03:00;;;;;;;10.37;5.60;;;8.10;99.90;;;;;;4976672;28;20648;-71
2021/12/30 06:05:26;;;;;;;6.57;5.60;;;8.10;99.90;;;;;;4979874;28;20424;-71
2021/12/30 06:07:51;;;;;;;6.50;4.73;;;8.10;99.90;;;;;;4980785;28;20413;-71
2021/12/30 06:10:17;;;;;;;8.10;6.03;;;8.20;99.90;;;;;;4978235;28;20175;-72
2021/12/30 06:12:43;;;;;;;7.90;5.43;;;8.20;99.90;;;;;;4977080;28;20248;-71
2021/12/30 06:15:10;;;;;;;7.73;4.90;;;8.20;99.90;;;;;;4974720;28;20429;-71
2021/12/30 06:17:37;;;;;;;11.83;7.37;;;8.20;99.90;;;;;;4972987;28;20648;-70
2021/12/30 06:20:08;;;;;;;11.57;6.23;;;8.20;99.90;;;;;;4972992;28;20412;-70
2021/12/30 06:22:34;;;;;;;9.70;5.50;;;8.20;99.90;;;;;;4972645;28;20479;-70
2021/12/30 06:24:59;;;;;;;7.00;5.37;;;8.30;99.90;;;;;;4973110;28;20409;-70
2021/12/30 06:27:25;;;;;;;8.37;6.17;;;8.30;99.90;;;;;;4972813;28;20432;-71
2021/12/30 06:29:50;;;;;;;8.17;5.23;;;8.30;99.90;;;;;;4973099;28;20177;-71
2021/12/30 06:32:16;;;;;;;7.57;5.17;;;8.30;99.90;;;;;;4972495;28;20293;-71
2021/12/30 06:34:41;;;;;;;9.80;5.03;;;8.30;99.90;;;;;;4972667;28;20181;-70
2021/12/30 06:37:07;;;;;;;11.50;5.30;;;8.30;99.90;;;;;;4972670;28;20807;-71
2021/12/30 06:39:33;;;;;;;8.17;5.40;;;8.30;99.90;;;;;;4973005;28;20641;-71
2021/12/30 06:41:58;;;;;;;7.77;5.53;;;8.30;99.90;;;;;;4971144;28;20213;-71
2021/12/30 06:44:23;;;;;;;8.47;4.23;;;8.20;99.90;;;;;;4972830;28;20162;-70
2021/12/30 06:46:56;;;;;;;15.80;5.30;;;8.20;99.90;;;;;;4972549;28;20185;-70
2021/12/30 06:49:22;;;;;;;7.47;4.47;;;8.20;99.90;;;;;;4972695;28;20182;-70
2021/12/30 06:51:48;;;;;;;7.10;4.13;;;8.10;99.90;;;;;;4987892;23;21152;-73
2021/12/30 06:54:13;;;;;;;5.87;4.53;;;8.10;99.90;;;;;;4952817;29;20402;-73
2021/12/30 06:56:39;;;;;;;9.07;5.00;;;8.00;99.90;;;;;;4952636;29;20166;-72
2021/12/30 06:59:05;;;;;;;5.83;3.83;;;8.00;99.90;;;;;;4952685;29;20177;-71
2021/12/30 07:01:30;;;;;;;11.60;5.00;;;7.90;99.90;;;;;;4952715;28;20571;-73
2021/12/30 07:03:56;;;;;;;11.20;4.47;;;7.90;99.90;;;;;;4968887;28;20759;-72
2021/12/30 07:06:22;;;;;;;9.13;5.23;;;7.90;99.90;;;;;;4956665;28;20175;-72
2021/12/30 07:08:47;;;;;;;6.40;4.77;;;7.90;99.90;;;;;;4956437;29;20170;-73
2021/12/30 07:11:13;;;;;;;8.03;4.60;;;7.80;99.90;;;;;;4956089;28;20257;-75
2021/12/30 07:13:38;;;;;;;9.30;4.57;;;7.80;99.90;;;;;;4956016;29;20187;-73
2021/12/30 07:16:04;;;;;;;11.20;5.97;;;7.80;99.90;;;;;;4955952;29;20365;-73
2021/12/30 07:18:30;;;;;;;5.67;4.20;;;7.80;99.90;;;;;;4955993;28;20178;-72
2021/12/30 07:20:55;;;;;;;7.83;5.23;;;7.70;99.90;;;;;;4955979;29;20207;-73
2021/12/30 07:23:21;;;;;;;12.97;5.40;;;7.80;99.90;;;;;;4955919;28;20439;-73
2021/12/30 07:25:46;;;;;;;8.63;5.27;;;7.90;99.90;;;;;;4956988;29;20167;-72
2021/12/30 07:28:12;;;;;;;6.60;4.53;;;7.90;99.90;;;;;;4956373;29;20174;-74
2021/12/30 07:30:37;;;;;;;6.70;5.13;;;7.90;99.90;;;;;;4957128;29;20656;-74
2021/12/30 07:33:06;;;;;;;10.80;4.77;;;8.00;99.90;;;;;;4956539;28;20203;-72
2021/12/30 07:35:32;;;;;;;9.30;3.80;;;8.00;99.90;;;;;;4970305;28;20170;-73
2021/12/30 07:37:58;;;;;;;11.07;4.63;;;8.00;99.90;;;;;;4955717;28;20912;-73
2021/12/30 07:40:24;;;;;;;8.87;5.50;;;8.00;99.90;;;;;;4955981;29;20422;-72
2021/12/30 07:42:49;;;;;;;11.57;6.73;;;8.00;99.90;;;;;;4955383;28;20218;-71
2021/12/30 07:45:15;;;;;;;12.30;5.60;;;8.00;99.90;;;;;;4955308;28;20637;-72
2021/12/30 07:47:42;;;;;;;7.70;3.47;;;8.10;99.90;;;;;;4952609;28;20230;-71
2021/12/30 07:50:08;;;;;;;12.80;4.70;;;8.10;99.90;;;;;;4951444;28;20474;-74
2021/12/30 07:52:34;;;;;;;6.73;4.80;;;8.10;99.90;;;;;;4943212;29;21183;-72
2021/12/30 07:55:00;;;;;;;4.83;3.10;;;8.10;99.90;;;;;;4945666;29;20428;-73
2021/12/30 07:57:26;;;;;;;12.80;4.10;;;8.10;99.90;;;;;;4951414;28;20283;-71
2021/12/30 07:59:52;;;;;;;5.17;4.60;;;8.10;99.90;;;;;;4953717;28;20633;-72
2021/12/30 08:02:19;;;;;;;11.83;6.50;;;8.10;99.90;;;;;;4954742;29;20289;-71
2021/12/30 08:04:45;;;;;;;8.37;4.30;;;8.10;99.90;;;;;;4955067;28;20432;-73
2021/12/30 08:07:11;;;;;;;4.30;3.53;;;8.10;99.90;;;;;;4955575;29;20453;-72
2021/12/30 08:09:37;;;;;;;9.43;4.00;;;8.10;99.90;;;;;;4955523;28;20878;-75
2021/12/30 08:12:03;;;;;;;7.53;4.30;;;8.10;99.90;;;;;;4955091;28;20696;-73
2021/12/30 08:14:28;;;;;;;7.67;3.80;;;8.10;99.90;;;;;;4954982;28;20428;-74
2021/12/30 08:16:54;;;;;;;7.50;3.10;;;8.20;99.90;;;;;;4954873;28;20773;-70
2021/12/30 08:19:20;;;;;;;7.63;4.03;;;8.30;99.90;;;;;;4954844;29;20187;-72
2021/12/30 08:21:45;;;;;;;6.43;4.57;;;8.40;99.90;;;;;;4953192;28;20196;-73
2021/12/30 08:24:11;;;;;;;6.43;4.90;;;8.40;99.90;;;;;;4954635;28;20163;-72
2021/12/30 08:26:37;;;;;;;10.90;4.60;;;8.40;99.90;;;;;;4954702;28;20777;-74
2021/12/30 08:29:03;;;;;;;5.53;3.73;;;8.40;99.90;;;;;;4954469;28;20489;-72
2021/12/30 08:31:29;;;;;;;8.53;4.33;;;8.40;99.90;;;;;;4954768;29;20220;-76
2021/12/30 08:33:54;;;;;;;7.93;6.40;;;8.50;99.90;;;;;;4954182;29;20470;-73
2021/12/30 08:36:20;;;;;;;8.97;4.63;;;8.50;99.90;;;;;;4954284;28;20191;-72
2021/12/30 08:38:46;;;;;;;6.93;5.27;;;8.60;99.90;;;;;;4954153;28;20494;-73
2021/12/30 08:41:11;;;;;;;7.33;4.70;;;8.60;99.90;;;;;;4954222;29;20206;-74
2021/12/30 08:43:36;;;;;;;9.30;4.57;;;8.60;99.90;;;;;;4954288;29;20171;-72
2021/12/30 08:46:03;;;;;;;6.43;4.57;;;8.60;99.90;;;;;;4954266;29;20258;-73
2021/12/30 08:48:28;;;;;;;6.67;4.93;;;8.70;99.90;;;;;;4954155;28;20166;-74
2021/12/30 08:50:56;;;;;;;8.50;3.80;;;8.70;99.90;;;;;;4954170;28;20415;-73
2021/12/30 08:53:25;;;;;;;8.37;4.30;;;8.70;99.90;;;;;;4953622;28;20247;-74
2021/12/30 08:55:51;;;;;;;7.10;3.50;;;8.80;99.90;;;;;;4954918;28;20411;-72
2021/12/30 08:58:16;;;;;;;5.37;3.70;;;8.80;99.90;;;;;;4954125;28;20406;-72
2021/12/30 09:00:46;;;;;;;6.37;3.57;;;8.90;99.90;;;;;;4954123;29;20466;-73
2021/12/30 09:03:12;;;;;;;6.63;4.80;;;8.90;99.90;;;;;;4954039;28;20195;-72
2021/12/30 09:05:37;;;;;;;3.83;3.47;;;8.90;99.90;;;;;;4953793;28;20406;-72
2021/12/30 09:08:04;;;;;;;23.63;4.40;;;8.90;99.90;;;;;;4954103;29;20476;-73
2021/12/30 09:10:35;;;;;;;12.27;4.30;;;8.90;99.90;;;;;;4952858;29;20176;-73
2021/12/30 09:13:01;;;;;;;4.90;3.33;;;8.90;99.90;;;;;;4952914;28;20441;-74
2021/12/30 09:15:29;;;;;;;8.60;4.10;;;9.00;99.90;;;;;;4953662;28;20426;-74
2021/12/30 09:17:55;;;;;;;6.10;3.30;;;9.00;99.90;;;;;;4953746;28;20421;-73
2021/12/30 09:20:22;;;;;;;6.30;3.30;;;9.10;99.90;;;;;;4953176;29;20411;-72
2021/12/30 09:22:48;;;;;;;4.30;3.90;;;9.10;99.90;;;;;;4953388;28;20206;-71
2021/12/30 09:25:17;;;;;;;6.80;4.07;;;9.10;99.90;;;;;;4953475;28;20404;-71
2021/12/30 09:27:42;;;;;;;4.73;3.83;;;9.10;99.90;;;;;;4951550;28;20426;-72
2021/12/30 09:30:11;;;;;;;7.63;5.63;;;9.20;99.90;;;;;;4952101;29;20409;-71
2021/12/30 09:32:38;;;;;;;6.03;4.17;;;9.20;99.90;;;;;;4953090;28;20225;-72
2021/12/30 09:35:04;;;;;;;6.47;4.13;;;9.20;99.90;;;;;;4953128;28;20497;-71
2021/12/30 09:37:30;;;;;;;6.70;3.73;;;9.30;99.90;;;;;;4953300;28;20864;-72
2021/12/30 09:39:55;;;;;;;6.07;4.10;;;9.30;99.90;;;;;;4953194;28;20413;-72
2021/12/30 09:42:22;;;;;;;5.00;3.47;;;9.30;99.90;;;;;;4952822;29;20273;-73
2021/12/30 09:44:48;;;;;;;5.37;4.47;;;9.30;99.90;;;;;;4953232;28;20541;-72
2021/12/30 09:47:13;;;;;;;6.93;3.90;;;9.30;99.90;;;;;;4953036;28;20446;-73
2021/12/30 09:49:39;;;;;;;7.43;4.20;;;9.30;99.90;;;;;;4952983;28;20194;-71
2021/12/30 09:52:05;;;;;;;6.67;4.23;;;9.20;99.90;;;;;;4952882;28;20241;-71
2021/12/30 09:54:30;;;;;;;6.63;3.20;;;9.20;99.90;;;;;;4953202;28;20164;-71
2021/12/30 09:56:56;;;;;;;4.50;4.10;;;9.30;99.90;;;;;;4961252;28;20175;-71
2021/12/30 09:59:25;;;;;;;6.60;3.70;;;9.30;99.90;;;;;;4953050;28;20300;-72
2021/12/30 10:01:51;;;;;;;8.63;5.20;;;9.20;99.90;;;;;;4951494;28;20610;-73
2021/12/30 10:04:17;;;;;;;5.60;4.03;;;9.30;99.90;;;;;;4953150;28;20476;-72
2021/12/30 10:06:48;;;;;;;7.03;3.60;;;9.30;99.90;;;;;;4953130;28;20804;-72
2021/12/30 10:09:15;;;;;;;6.30;4.57;;;9.30;99.90;;;;;;4953181;29;20485;-74
2021/12/30 10:12:00;;;;;;;5.30;3.83;;;9.30;99.90;;;;;;4952678;28;20438;-72
2021/12/30 10:14:37;;;;;;;4.13;3.47;;;9.30;99.90;;;;;;4952900;28;20796;-75
2021/12/30 10:17:21;;;;;;;8.70;4.30;;;9.30;99.90;;;;;;4953164;28;20416;-71
2021/12/30 10:19:49;;;;;;;5.23;3.53;;;9.40;99.90;;;;;;4952672;29;20414;-71
2021/12/30 10:22:18;;;;;;;9.77;4.43;;;9.40;99.90;;;;;;4952567;28;20558;-71
2021/12/30 10:24:45;;;;;;;11.93;4.10;;;9.40;99.90;;;;;;4952573;28;20510;-71
2021/12/30 10:27:22;;;;;;;8.33;4.43;;;9.40;99.90;;;;;;4952506;28;20418;-74
2021/12/30 10:29:48;;;;;;;5.70;3.60;;;9.40;99.90;;;;;;4951377;29;20405;-71
2021/12/30 10:32:14;;;;;;;4.57;3.83;;;9.50;99.90;;;;;;4952739;28;20521;-71
2021/12/30 10:35:06;;;;;;;10.07;4.30;;;9.50;99.90;;;;;;4952904;28;20408;-72
2021/12/30 10:37:32;;;;;;;5.73;3.53;;;9.40;99.90;;;;;;4953021;28;20421;-72
2021/12/30 10:39:58;;;;;;;13.10;4.07;;;9.40;99.90;;;;;;4955681;28;20409;-72
2021/12/30 10:42:24;;;;;;;8.30;4.00;;;9.40;99.90;;;;;;4956694;28;20461;-72
2021/12/30 10:44:55;;;;;;;5.40;4.27;;;9.50;99.90;;;;;;4956658;29;20171;-72
2021/12/30 10:47:27;;;;;;;8.97;3.97;;;9.40;99.90;;;;;;4956349;29;20943;-72
2021/12/30 10:50:01;;;;;;;4.97;3.50;;;9.50;99.90;;;;;;4956228;28;20797;-72
2021/12/30 10:52:28;;;;;;;6.73;4.40;;;9.40;99.90;;;;;;4955981;28;20452;-72
2021/12/30 10:54:54;;;;;;;10.67;3.80;;;9.50;99.90;;;;;;4956298;28;20415;-73
2021/12/30 10:57:20;;;;;;;5.63;3.93;;;9.40;99.90;;;;;;4973676;28;20521;-73
2021/12/30 10:59:49;;;;;;;5.10;2.90;;;9.40;99.90;;;;;;4975361;28;20991;-72
2021/12/30 11:02:18;;;;;;;4.07;3.03;;;9.50;99.90;;;;;;4975289;28;20205;-70
2021/12/30 11:04:46;;;;;;;10.60;4.47;;;9.50;99.90;;;;;;4975418;28;20534;-74
2021/12/30 11:07:14;;;;;;;5.00;3.70;;;9.50;99.90;;;;;;4975477;28;20403;-72
2021/12/30 11:09:49;;;;;;;9.67;4.13;;;9.50;99.90;;;;;;4975373;28;20811;-71
2021/12/30 11:12:16;;;;;;;6.27;3.60;;;9.60;99.90;;;;;;4975139;28;20482;-73
2021/12/30 11:14:41;;;;;;;9.03;4.73;;;9.60;99.90;;;;;;4974999;28;20413;-70
2021/12/30 11:17:18;;;;;;;5.60;3.97;;;9.70;99.90;;;;;;4975101;28;20848;-70
2021/12/30 11:19:59;;;;;;;6.53;3.00;;;9.60;99.90;;;;;;4975349;28;20168;-72
2021/12/30 11:22:27;;;;;;;4.23;2.43;;;9.50;99.90;;;;;;4974848;28;20461;-73
2021/12/30 11:24:56;;;;;;;6.00;3.80;;;9.60;99.90;;;;;;4974672;28;20481;-73
2021/12/30 11:27:23;;;;;;;6.90;3.17;;;9.60;99.90;;;;;;4974705;28;20756;-71
2021/12/30 11:29:54;;;;;;;17.13;4.20;;;9.60;99.90;;;;;;4974840;28;20409;-72
2021/12/30 11:32:27;;;;;;;6.40;3.20;;;9.60;99.90;;;;;;4969512;28;20536;-73
2021/12/30 11:34:52;;;;;;;5.50;4.27;;;9.60;99.90;;;;;;4955467;28;20429;-73
2021/12/30 11:37:19;;;;;;;4.13;3.00;;;9.50;99.90;;;;;;4955616;29;20405;-72
2021/12/30 11:39:47;;;;;;;5.13;2.80;;;9.60;99.90;;;;;;4955624;29;20661;-73
2021/12/30 11:42:23;;;;;;;5.93;2.73;;;9.60;99.90;;;;;;4955206;28;20466;-72
2021/12/30 11:44:51;;;;;;;12.10;3.80;;;9.60;99.90;;;;;;4955143;28;20412;-74
2021/12/30 11:47:31;;;;;;;4.10;3.20;;;9.60;99.90;;;;;;4955448;28;20492;-73
2021/12/30 11:50:17;;;;;;;4.63;3.23;;;9.60;99.90;;;;;;4954669;28;20403;-71
2021/12/30 11:52:58;;;;;;;6.17;3.70;;;9.60;99.90;;;;;;4954988;28;20449;-70
2021/12/30 11:55:49;;;;;;;7.57;2.70;;;9.70;99.90;;;;;;4957145;28;20509;-72
2021/12/30 11:58:42;;;;;;;4.30;2.80;;;9.70;99.90;;;;;;4974197;28;20508;-72
2021/12/30 12:01:11;;;;;;;4.57;3.07;;;9.70;99.90;;;;;;4974131;28;20453;-72
2021/12/30 12:03:40;;;;;;;4.80;3.30;;;9.80;99.90;;;;;;4974206;28;20412;-72
2021/12/30 12:06:31;;;;;;;4.40;3.30;;;9.70;99.90;;;;;;4974103;28;20433;-72
2021/12/30 12:09:27;;;;;;;8.00;2.53;;;9.70;99.90;;;;;;4974137;28;20911;-71
2021/12/30 12:12:02;;;;;;;7.80;4.00;;;9.70;99.90;;;;;;4974116;28;20476;-72
2021/12/30 12:14:38;;;;;;;10.33;4.83;;;9.70;99.90;;;;;;4961826;28;20927;-71
2021/12/30 12:17:11;;;;;;;3.33;2.73;;;9.60;99.90;;;;;;4954885;29;20446;-71
2021/12/30 12:19:51;;;;;;;3.80;3.37;;;9.70;99.90;;;;;;4954473;28;20417;-70
2021/12/30 12:22:19;;;;;;;6.83;4.17;;;9.60;99.90;;;;;;4954315;28;20561;-72
2021/12/30 12:24:49;;;;;;;8.00;3.63;;;9.60;99.90;;;;;;4954600;28;20402;-72
2021/12/30 12:27:18;;;;;;;3.47;3.10;;;9.60;99.90;;;;;;4954515;28;20484;-71
2021/12/30 12:29:49;;;;;;;10.30;3.27;;;9.60;99.90;;;;;;4954575;28;20500;-73
2021/12/30 12:32:17;;;;;;;4.43;3.17;;;9.60;99.90;;;;;;4954105;28;20500;-71
2021/12/30 12:34:53;;;;;;;5.80;3.40;;;9.60;99.90;;;;;;4954090;28;20423;-71
2021/12/30 12:37:33;;;;;;;4.03;2.93;;;9.60;99.90;;;;;;4954268;29;20489;-71
2021/12/30 12:40:02;;;;;;;7.53;3.23;;;9.70;99.90;;;;;;4954317;29;20443;-72
2021/12/30 12:42:43;;;;;;;5.53;2.90;;;9.60;99.90;;;;;;4953018;29;20469;-71
2021/12/30 12:45:15;;;;;;;6.80;4.03;;;9.60;99.90;;;;;;4954008;28;20893;-74
2021/12/30 12:47:40;;;;;;;8.80;3.43;;;9.70;99.90;;;;;;4954100;29;20406;-74
2021/12/30 12:50:07;;;;;;;6.50;3.73;;;9.60;99.90;;;;;;4954062;28;20962;-73
2021/12/30 12:55:00;;;;;;;9.47;3.03;;;9.70;99.90;;;;;;4991656;23;20496;-73
2021/12/30 12:57:26;;;;;;;5.07;4.13;;;9.70;99.90;;;;;;4973694;28;20904;-73
2021/12/30 12:59:52;;;;;;;4.13;3.00;;;9.60;99.90;;;;;;4974204;28;20209;-72
2021/12/30 13:02:18;;;;;;;4.10;3.20;;;9.60;99.90;;;;;;4973112;28;20265;-72